createdAt,value
2023-07-24T00:00:30.440Z,99830.78
2023-07-24T00:02:57.948Z,99840.78
2023-07-24T00:05:24.775Z,99830.00
2023-07-24T00:07:51.537Z,99841.09
2023-07-24T00:10:18.414Z,99847.03
2023-07-24T00:12:45.150Z,99850.78
2023-07-24T00:15:11.958Z,99855.06
2023-07-24T00:17:38.765Z,99854.16
2023-07-24T00:20:06.468Z,99861.97
2023-07-24T00:22:33.285Z,99860.41
2023-07-24T00:25:00.007Z,99847.50
2023-07-24T00:27:26.917Z,99848.59
2023-07-24T00:29:53.653Z,99848.63
2023-07-24T00:32:20.377Z,99849.13
2023-07-24T00:34:47.120Z,99844.31
2023-07-24T00:37:13.971Z,99841.84
2023-07-24T00:39:40.754Z,99839.97
2023-07-24T00:42:07.784Z,99837.84
2023-07-24T00:44:34.634Z,99830.53
2023-07-24T00:47:01.917Z,99744.84
2023-07-24T00:49:28.906Z,99830.81
2023-07-24T00:51:55.700Z,99822.13
2023-07-24T00:54:23.893Z,99828.69
2023-07-24T00:56:50.976Z,99821.66
2023-07-24T00:59:17.771Z,99827.84
2023-07-24T01:01:45.561Z,99828.94
2023-07-24T01:04:12.394Z,99831.66
2023-07-24T01:06:39.131Z,99828.38
2023-07-24T01:09:06.015Z,99824.38
2023-07-24T01:11:45.105Z,99823.06
2023-07-24T01:14:28.233Z,99823.84
2023-07-24T01:16:56.827Z,99825.47
2023-07-24T01:19:42.066Z,99819.50
2023-07-24T01:22:33.908Z,99816.28
2023-07-24T01:25:36.626Z,99819.78
2023-07-24T01:28:08.841Z,99822.19
2023-07-24T01:30:35.779Z,99812.72
2023-07-24T01:33:03.188Z,99819.75
2023-07-24T01:35:31.758Z,99806.28
2023-07-24T01:37:59.975Z,99819.81
2023-07-24T01:40:26.949Z,99811.97
2023-07-24T01:42:53.864Z,99830.63
2023-07-24T01:45:20.751Z,99824.94
2023-07-24T01:47:47.524Z,99811.97
2023-07-24T01:50:15.577Z,99827.91
2023-07-24T01:52:42.351Z,99828.72
2023-07-24T01:55:10.373Z,99824.41
2023-07-24T01:57:37.154Z,99826.28
2023-07-24T02:00:04.314Z,99830.34
2023-07-24T02:02:31.154Z,99827.38
2023-07-24T02:04:58.054Z,99830.63
2023-07-24T02:07:24.780Z,99818.97
2023-07-24T02:09:51.636Z,99835.22
2023-07-24T02:12:18.355Z,99837.09
2023-07-24T02:14:45.074Z,99827.66
2023-07-24T02:17:11.789Z,99836.56
2023-07-24T02:19:38.476Z,99833.31
2023-07-24T02:22:05.236Z,99823.88
2023-07-24T02:24:32.348Z,99827.38
2023-07-24T02:26:59.151Z,99831.69
2023-07-24T02:29:25.872Z,99833.34
2023-07-24T02:31:52.645Z,99834.41
2023-07-24T02:34:19.380Z,99836.84
2023-07-24T02:36:46.254Z,99836.28
2023-07-24T02:39:13.060Z,99834.66
2023-07-24T02:41:39.769Z,99830.91
2023-07-24T02:44:06.524Z,99834.69
2023-07-24T02:46:33.282Z,99843.84
2023-07-24T02:49:00.172Z,99836.81
2023-07-24T02:51:26.918Z,99825.47
2023-07-24T02:53:55.694Z,99842.50
2023-07-24T02:56:22.973Z,99838.47
2023-07-24T02:58:50.059Z,99832.72
2023-07-24T03:01:17.262Z,99841.09
2023-07-24T03:03:44.211Z,99832.72
2023-07-24T03:06:10.981Z,99836.19
2023-07-24T03:08:37.849Z,99834.03
2023-07-24T03:11:08.498Z,99825.66
2023-07-24T03:13:35.314Z,99835.38
2023-07-24T03:16:02.259Z,99826.72
2023-07-24T03:18:29.044Z,99844.84
2023-07-24T03:20:58.244Z,99842.97
2023-07-24T03:23:24.997Z,99844.03
2023-07-24T03:25:51.693Z,99847.81
2023-07-24T03:28:18.417Z,99851.59
2023-07-24T03:30:45.214Z,99847.56
2023-07-24T03:33:13.320Z,99840.63
2023-07-24T03:35:40.595Z,99843.03
2023-07-24T03:38:07.357Z,99840.03
2023-07-24T03:40:34.116Z,99846.28
2023-07-24T03:43:00.839Z,99842.78
2023-07-24T03:45:27.560Z,99843.34
2023-07-24T03:47:54.243Z,99850.09
2023-07-24T03:50:20.980Z,99851.72
2023-07-24T03:52:47.689Z,99851.72
2023-07-24T03:55:14.432Z,99848.75
2023-07-24T03:57:41.197Z,99857.94
2023-07-24T04:00:08.578Z,99862.28
2023-07-24T04:02:35.369Z,99852.81
2023-07-24T04:05:02.151Z,99863.31
2023-07-24T04:07:28.880Z,99859.00
2023-07-24T04:09:55.669Z,99864.41
2023-07-24T04:12:22.395Z,99872.53
2023-07-24T04:14:50.182Z,99868.72
2023-07-24T04:17:17.033Z,99865.16
2023-07-24T04:19:43.894Z,99862.41
2023-07-24T04:22:10.717Z,99865.38
2023-07-24T04:24:37.607Z,99859.94
2023-07-24T04:27:04.551Z,99874.84
2023-07-24T04:29:31.329Z,99863.53
2023-07-24T04:31:58.049Z,99862.06
2023-07-24T04:34:24.716Z,99870.72
2023-07-24T04:36:51.533Z,99884.88
2023-07-24T04:39:18.305Z,99872.38
2023-07-24T04:41:44.968Z,99871.28
2023-07-24T04:44:11.765Z,99873.63
2023-07-24T04:46:38.481Z,99882.44
2023-07-24T04:49:05.226Z,99876.97
2023-07-24T04:51:33.897Z,99859.38
2023-07-24T04:54:02.906Z,99869.69
2023-07-24T04:56:29.764Z,99866.31
2023-07-24T04:58:56.616Z,99859.84
2023-07-24T05:01:23.305Z,99850.78
2023-07-24T05:03:50.107Z,99855.16
2023-07-24T05:06:16.864Z,99864.44
2023-07-24T05:08:43.563Z,99872.59
2023-07-24T05:11:10.329Z,99888.44
2023-07-24T05:13:37.056Z,99883.50
2023-07-24T05:16:03.933Z,99889.56
2023-07-24T05:18:30.793Z,99865.34
2023-07-24T05:20:57.674Z,99902.94
2023-07-24T05:23:24.503Z,99903.72
2023-07-24T05:26:04.225Z,99898.00
2023-07-24T05:28:32.632Z,99898.00
2023-07-24T05:31:06.360Z,99901.00
2023-07-24T05:33:33.288Z,99895.09
2023-07-24T05:36:04.906Z,99898.16
2023-07-24T05:38:31.976Z,99888.00
2023-07-24T05:41:03.613Z,99912.41
2023-07-24T05:43:31.722Z,99913.81
2023-07-24T05:45:58.808Z,99906.38
2023-07-24T05:48:26.344Z,99902.34
2023-07-24T05:50:53.439Z,99896.75
2023-07-24T05:53:20.319Z,99891.16
2023-07-24T05:55:46.995Z,99897.28
2023-07-24T05:58:13.836Z,99887.34
2023-07-24T06:00:40.594Z,99898.53
2023-07-24T06:03:08.798Z,99900.50
2023-07-24T06:05:36.107Z,99889.06
2023-07-24T06:08:02.880Z,99898.53
2023-07-24T06:10:29.717Z,99890.47
2023-07-24T06:12:56.605Z,99891.81
2023-07-24T06:15:23.473Z,99897.19
2023-07-24T06:17:52.575Z,99888.81
2023-07-24T06:20:21.462Z,99891.28
2023-07-24T06:22:48.200Z,99891.81
2023-07-24T06:25:15.059Z,99892.88
2023-07-24T06:27:41.812Z,99901.63
2023-07-24T06:30:15.721Z,99890.47
2023-07-24T06:32:43.465Z,99894.38
2023-07-24T06:35:10.201Z,99896.91
2023-07-24T06:37:36.883Z,99889.00
2023-07-24T06:40:04.117Z,99893.63
2023-07-24T06:42:31.000Z,99893.53
2023-07-24T06:44:57.758Z,99891.28
2023-07-24T06:47:24.616Z,99892.03
2023-07-24T06:49:51.402Z,99859.81
2023-07-24T06:52:18.316Z,99894.97
2023-07-24T06:54:45.288Z,99891.38
2023-07-24T06:57:12.050Z,99895.63
2023-07-24T06:59:38.815Z,99895.41
2023-07-24T07:02:05.566Z,99893.59
2023-07-24T07:04:32.266Z,99889.03
2023-07-24T07:06:58.959Z,99888.69
2023-07-24T07:09:25.793Z,99884.25
2023-07-24T07:11:52.489Z,99874.19
2023-07-24T07:14:19.186Z,99864.47
2023-07-24T07:16:48.831Z,99859.97
2023-07-24T07:19:15.770Z,99863.81
2023-07-24T07:21:42.630Z,99866.53
2023-07-24T07:24:09.522Z,99860.81
2023-07-24T07:26:36.280Z,99859.81
2023-07-24T07:29:03.020Z,99859.59
2023-07-24T07:31:29.818Z,99862.63
2023-07-24T07:33:56.469Z,99853.91
2023-07-24T07:36:23.988Z,99838.31
2023-07-24T07:38:50.818Z,99860.19
2023-07-24T07:41:17.512Z,99851.00
2023-07-24T07:43:44.228Z,99849.91
2023-07-24T07:46:12.305Z,99854.59
2023-07-24T07:48:39.099Z,99851.34
2023-07-24T07:51:05.823Z,99843.56
2023-07-24T07:53:33.088Z,99837.69
2023-07-24T07:56:01.087Z,99842.72
2023-07-24T07:58:28.005Z,99835.59
2023-07-24T08:00:57.102Z,99845.75
2023-07-24T08:03:24.083Z,99847.94
2023-07-24T08:05:50.855Z,99848.41
2023-07-24T08:08:17.591Z,99843.91
2023-07-24T08:10:44.353Z,99849.97
2023-07-24T08:13:11.089Z,99853.00
2023-07-24T08:15:39.115Z,99845.91
2023-07-24T08:18:06.819Z,99847.44
2023-07-24T08:20:36.629Z,99851.13
2023-07-24T08:23:03.519Z,99832.63
2023-07-24T08:25:30.250Z,99845.06
2023-07-24T08:28:05.213Z,99839.84
2023-07-24T08:30:33.504Z,99839.03
2023-07-24T08:33:00.693Z,99851.50
2023-07-24T08:35:27.952Z,99844.88
2023-07-24T08:37:54.807Z,99840.59
2023-07-24T08:40:21.900Z,99838.50
2023-07-24T08:42:51.967Z,99825.19
2023-07-24T08:45:19.291Z,99817.97
2023-07-24T08:47:46.729Z,99811.47
2023-07-24T08:50:16.401Z,99809.06
2023-07-24T08:52:44.579Z,99809.56
2023-07-24T08:55:12.438Z,99822.44
2023-07-24T08:57:39.435Z,99818.50
2023-07-24T09:00:06.764Z,99815.53
2023-07-24T09:02:37.306Z,99819.34
2023-07-24T09:05:04.892Z,99811.03
2023-07-24T09:07:33.246Z,99814.88
2023-07-24T09:10:00.464Z,99813.63
2023-07-24T09:12:27.367Z,99809.56
2023-07-24T09:15:08.245Z,99813.91
2023-07-24T09:17:35.853Z,99813.75
2023-07-24T09:20:04.001Z,99818.56
2023-07-24T09:22:31.012Z,99818.03
2023-07-24T09:24:58.942Z,99810.69
2023-07-24T09:27:27.897Z,99818.22
2023-07-24T09:29:55.813Z,99804.09
2023-07-24T09:32:24.734Z,99805.47
2023-07-24T09:34:52.320Z,99801.41
2023-07-24T09:37:31.162Z,99799.13
2023-07-24T09:40:00.112Z,99794.75
2023-07-24T09:42:37.584Z,99795.09
2023-07-24T09:45:11.783Z,99789.38
2023-07-24T09:50:10.865Z,99774.41
2023-07-24T09:52:38.793Z,99762.81
2023-07-24T09:55:13.189Z,99747.66
2023-07-24T09:57:40.496Z,99751.44
2023-07-24T10:00:08.801Z,99752.25
2023-07-24T10:02:37.467Z,99755.78
2023-07-24T10:05:04.935Z,99742.75
2023-07-24T10:07:33.021Z,99739.63
2023-07-24T10:10:00.183Z,99743.69
2023-07-24T10:12:29.375Z,99747.50
2023-07-24T10:14:56.831Z,99735.47
2023-07-24T10:17:43.930Z,99741.28
2023-07-24T10:20:12.786Z,99736.38
2023-07-24T10:22:43.237Z,99734.94
2023-07-24T10:25:11.070Z,99719.84
2023-07-24T10:27:43.909Z,99722.19
2023-07-24T10:30:23.506Z,99726.31
2023-07-24T10:33:21.942Z,99720.72
2023-07-24T10:35:52.662Z,99725.94
2023-07-24T10:38:19.368Z,99718.09
2023-07-24T10:40:48.107Z,99707.69
2023-07-24T10:43:20.182Z,99704.91
2023-07-24T10:45:55.075Z,99703.66
2023-07-24T10:48:26.847Z,99708.59
2023-07-24T10:50:55.119Z,99707.63
2023-07-24T10:53:24.288Z,99693.72
2023-07-24T10:55:52.694Z,99693.00
2023-07-24T10:58:19.583Z,99696.56
2023-07-24T11:00:48.646Z,99686.25
2023-07-24T11:03:16.321Z,99680.31
2023-07-24T11:05:44.116Z,99675.31
2023-07-24T11:08:18.528Z,99670.69
2023-07-24T11:10:47.893Z,99681.25
2023-07-24T11:13:15.477Z,99678.81
2023-07-24T11:15:42.496Z,99667.06
2023-07-24T11:18:09.657Z,99669.88
2023-07-24T11:20:44.842Z,99666.16
2023-07-24T11:23:12.201Z,99665.44
2023-07-24T11:25:40.161Z,99665.16
2023-07-24T11:28:08.404Z,99654.03
2023-07-24T11:30:36.103Z,99657.69
2023-07-24T11:33:08.501Z,99654.72
2023-07-24T11:35:36.426Z,99654.97
2023-07-24T11:38:04.499Z,99647.97
2023-07-24T11:40:45.617Z,99645.97
2023-07-24T11:43:20.595Z,99641.09
2023-07-24T11:45:50.113Z,99647.31
2023-07-24T11:48:17.126Z,99637.53
2023-07-24T11:51:01.853Z,99632.03
2023-07-24T11:53:32.857Z,99627.25
2023-07-24T11:56:00.863Z,99625.31
2023-07-24T11:58:28.983Z,99623.66
2023-07-24T12:00:56.143Z,99622.38
2023-07-24T12:03:25.935Z,99619.19
2023-07-24T12:05:53.378Z,99599.88
2023-07-24T12:08:24.942Z,99619.06
2023-07-24T12:10:51.770Z,99617.19
2023-07-24T12:13:20.753Z,99596.22
2023-07-24T12:15:48.931Z,99606.78
2023-07-24T12:18:16.603Z,99588.88
2023-07-24T12:20:43.499Z,99596.50
2023-07-24T12:23:10.294Z,99591.13
2023-07-24T12:25:37.014Z,99583.81
2023-07-24T12:28:03.989Z,99580.47
2023-07-24T12:30:30.758Z,99583.91
2023-07-24T12:32:57.576Z,99583.81
2023-07-24T12:35:24.379Z,99578.00
2023-07-24T12:37:51.100Z,99559.16
2023-07-24T12:40:17.900Z,99562.19
2023-07-24T12:42:44.761Z,99553.69
2023-07-24T12:45:11.559Z,99563.94
2023-07-24T12:47:38.300Z,99558.69
2023-07-24T12:50:07.720Z,99551.78
2023-07-24T12:52:35.098Z,99564.00
2023-07-24T12:55:02.782Z,99550.72
2023-07-24T12:57:30.439Z,99547.59
2023-07-24T12:59:57.174Z,99548.91
2023-07-24T13:02:24.042Z,99538.13
2023-07-24T13:04:50.833Z,99536.84
2023-07-24T13:07:17.549Z,99540.22
2023-07-24T13:09:45.518Z,99538.06
2023-07-24T13:12:12.290Z,99540.19
2023-07-24T13:14:41.229Z,99540.13
2023-07-24T13:17:10.460Z,99530.59
2023-07-24T13:19:37.242Z,99529.78
2023-07-24T13:22:04.209Z,99528.59
2023-07-24T13:24:31.222Z,99521.84
2023-07-24T13:26:58.018Z,99524.28
2023-07-24T13:29:26.121Z,99511.06
2023-07-24T13:31:53.561Z,99516.66
2023-07-24T13:34:23.209Z,99507.94
2023-07-24T13:36:49.976Z,99510.66
2023-07-24T13:39:16.821Z,99506.31
2023-07-24T13:41:43.843Z,99495.13
2023-07-24T13:44:11.161Z,99489.59
2023-07-24T13:46:40.295Z,99489.63
2023-07-24T13:49:08.712Z,99497.94
2023-07-24T13:51:35.523Z,99491.97
2023-07-24T13:54:03.475Z,99486.88
2023-07-24T13:56:35.116Z,99487.59
2023-07-24T13:59:02.090Z,99480.91
2023-07-24T14:01:29.266Z,99475.34
2023-07-24T14:03:56.676Z,99478.53
2023-07-24T14:06:23.572Z,99463.75
2023-07-24T14:08:50.445Z,99461.28
2023-07-24T14:11:17.329Z,99468.16
2023-07-24T14:13:44.485Z,99444.50
2023-07-24T14:16:11.282Z,99453.16
2023-07-24T14:18:39.003Z,99440.19
2023-07-24T14:21:05.673Z,99445.00
2023-07-24T14:23:32.313Z,99442.66
2023-07-24T14:25:59.024Z,99441.78
2023-07-24T14:28:25.762Z,99433.47
2023-07-24T14:30:52.498Z,99440.13
2023-07-24T14:33:20.000Z,99442.59
2023-07-24T14:35:46.776Z,99433.88
2023-07-24T14:38:13.464Z,99436.38
2023-07-24T14:40:40.948Z,99436.22
2023-07-24T14:43:08.122Z,99432.00
2023-07-24T14:45:35.061Z,99423.63
2023-07-24T14:48:01.826Z,99429.94
2023-07-24T14:50:28.713Z,99424.03
2023-07-24T14:52:55.491Z,99424.69
2023-07-24T14:55:22.393Z,99417.53
2023-07-24T14:57:49.150Z,99429.75
2023-07-24T15:00:17.616Z,99423.78
2023-07-24T15:02:44.932Z,99419.47
2023-07-24T15:05:11.792Z,99421.72
2023-07-24T15:07:39.050Z,99408.38
2023-07-24T15:10:07.004Z,99412.84
2023-07-24T15:12:33.743Z,99415.06
2023-07-24T15:15:00.508Z,99419.53
2023-07-24T15:17:27.252Z,99409.41
2023-07-24T15:19:54.755Z,99417.31
2023-07-24T15:22:21.619Z,99360.06
2023-07-24T15:24:48.522Z,99403.75
2023-07-24T15:27:15.509Z,99407.78
2023-07-24T15:29:42.238Z,99400.47
2023-07-24T15:32:09.442Z,99403.47
2023-07-24T15:34:39.410Z,99403.56
2023-07-24T15:37:06.879Z,99398.94
2023-07-24T15:39:33.668Z,99387.34
2023-07-24T15:42:00.455Z,99396.31
2023-07-24T15:44:27.185Z,99395.19
2023-07-24T15:46:54.210Z,99389.66
2023-07-24T15:49:21.009Z,99397.06
2023-07-24T15:51:47.854Z,99391.75
2023-07-24T15:54:14.590Z,99381.94
2023-07-24T15:56:41.667Z,99384.41
2023-07-24T15:59:10.186Z,99395.31
2023-07-24T16:01:37.092Z,99393.50
2023-07-24T16:04:03.884Z,99392.31
2023-07-24T16:06:30.720Z,99385.75
2023-07-24T16:08:57.534Z,99388.44
2023-07-24T16:11:24.306Z,99393.22
2023-07-24T16:13:51.070Z,99387.63
2023-07-24T16:16:17.842Z,99386.28
2023-07-24T16:18:44.887Z,99394.38
2023-07-24T16:21:11.614Z,99388.97
2023-07-24T16:23:38.357Z,99392.00
2023-07-24T16:26:05.132Z,99386.84
2023-07-24T16:28:31.936Z,99380.06
2023-07-24T16:30:59.251Z,99380.94
2023-07-24T16:33:26.399Z,99378.06
2023-07-24T16:35:53.253Z,99380.00
2023-07-24T16:38:20.153Z,99387.38
2023-07-24T16:40:46.912Z,99377.91
2023-07-24T16:43:13.641Z,99387.03
2023-07-24T16:45:40.575Z,99387.47
2023-07-24T16:48:07.533Z,99387.47
2023-07-24T16:50:36.593Z,99379.56
2023-07-24T16:53:04.684Z,99385.69
2023-07-24T16:55:31.548Z,99380.25
2023-07-24T16:57:58.363Z,99376.53
2023-07-24T17:00:25.110Z,99361.22
2023-07-24T17:02:52.050Z,99367.41
2023-07-24T17:05:18.981Z,99384.03
2023-07-24T17:07:45.839Z,99377.69
2023-07-24T17:10:12.669Z,99371.22
2023-07-24T17:12:39.370Z,99365.28
2023-07-24T17:15:06.822Z,99369.47
2023-07-24T17:17:34.116Z,99365.09
2023-07-24T17:20:01.365Z,99364.22
2023-07-24T17:22:28.168Z,99356.56
2023-07-24T17:24:55.009Z,99346.47
2023-07-24T17:27:22.882Z,99353.63
2023-07-24T17:29:49.775Z,99353.19
2023-07-24T17:32:19.739Z,99348.59
2023-07-24T17:34:46.507Z,99354.88
2023-07-24T17:37:21.251Z,99352.31
2023-07-24T17:39:51.596Z,99358.53
2023-07-24T17:42:18.483Z,99356.16
2023-07-24T17:44:45.322Z,99370.78
2023-07-24T17:47:12.064Z,99364.00
2023-07-24T17:49:38.967Z,99359.09
2023-07-24T17:52:06.894Z,99365.41
2023-07-24T17:54:34.736Z,99372.41
2023-07-24T17:57:01.714Z,99378.22
2023-07-24T17:59:29.677Z,99362.69
2023-07-24T18:01:56.428Z,99367.00
2023-07-24T18:04:23.349Z,99372.25
2023-07-24T18:06:50.068Z,99360.22
2023-07-24T18:09:18.813Z,99390.34
2023-07-24T18:11:46.955Z,99385.56
2023-07-24T18:14:13.673Z,99394.28
2023-07-24T18:16:40.453Z,99372.28
2023-07-24T18:19:07.328Z,99386.78
2023-07-24T18:21:34.040Z,99387.72
2023-07-24T18:24:06.189Z,99398.25
2023-07-24T18:26:34.178Z,99398.28
2023-07-24T18:29:01.441Z,99400.94
2023-07-24T18:31:28.931Z,99398.88
2023-07-24T18:33:57.293Z,99400.78
2023-07-24T18:36:24.344Z,99406.22
2023-07-24T18:38:51.040Z,99404.34
2023-07-24T18:41:17.885Z,99409.31
2023-07-24T18:43:44.822Z,99411.88
2023-07-24T18:46:11.664Z,99402.59
2023-07-24T18:48:38.497Z,99400.16
2023-07-24T18:51:05.660Z,99405.13
2023-07-24T18:53:32.656Z,99417.63
2023-07-24T18:56:02.197Z,99418.06
2023-07-24T18:58:28.872Z,99426.38
2023-07-24T19:00:55.585Z,99422.16
2023-07-24T19:03:22.350Z,99434.13
2023-07-24T19:05:49.844Z,99434.44
2023-07-24T19:08:16.679Z,99434.09
2023-07-24T19:10:43.412Z,99434.88
2023-07-24T19:13:10.155Z,99446.41
2023-07-24T19:15:36.922Z,99437.84
2023-07-24T19:18:03.829Z,99451.94
2023-07-24T19:20:31.705Z,99440.97
2023-07-24T19:22:58.442Z,99444.88
2023-07-24T19:25:25.170Z,99441.22
2023-07-24T19:27:51.838Z,99446.28
2023-07-24T19:30:18.580Z,99439.34
2023-07-24T19:32:46.593Z,99449.88
2023-07-24T19:35:13.396Z,99447.28
2023-07-24T19:37:41.479Z,99451.03
2023-07-24T19:40:09.079Z,99452.94
2023-07-24T19:42:35.774Z,99441.03
2023-07-24T19:45:02.695Z,99456.56
2023-07-24T19:47:29.592Z,99452.59
2023-07-24T19:49:56.385Z,99445.34
2023-07-24T19:52:23.982Z,99437.13
2023-07-24T19:54:52.117Z,99454.44
2023-07-24T19:57:18.802Z,99455.19
2023-07-24T19:59:45.467Z,99439.88
2023-07-24T20:02:12.632Z,99453.88
2023-07-24T20:04:39.451Z,99459.88
2023-07-24T20:07:07.997Z,99454.31
2023-07-24T20:09:35.055Z,99455.56
2023-07-24T20:12:02.175Z,99460.41
2023-07-24T20:14:28.894Z,99465.91
2023-07-24T20:16:55.780Z,99458.28
2023-07-24T20:19:22.882Z,99466.47
2023-07-24T20:21:49.710Z,99455.13
2023-07-24T20:24:16.514Z,99463.16
2023-07-24T20:26:43.305Z,99466.19
2023-07-24T20:29:09.976Z,99464.75
2023-07-24T20:31:36.737Z,99452.47
2023-07-24T20:34:03.454Z,99450.25
2023-07-24T20:36:30.233Z,99456.94
2023-07-24T20:38:56.939Z,99437.19
2023-07-24T20:41:23.744Z,99463.31
2023-07-24T20:43:50.584Z,99457.31
2023-07-24T20:46:17.529Z,99451.53
2023-07-24T20:48:44.438Z,99453.41
2023-07-24T20:51:16.884Z,99440.44
2023-07-24T20:56:38.320Z,99456.72
2023-07-24T20:59:05.106Z,99446.84
2023-07-24T21:01:32.025Z,99441.81
2023-07-24T21:03:58.932Z,99447.84
2023-07-24T21:06:25.637Z,99453.69
2023-07-24T21:08:52.341Z,99433.75
2023-07-24T21:11:19.113Z,99449.44
2023-07-24T21:13:45.890Z,99451.84
2023-07-24T21:16:12.638Z,99447.09
2023-07-24T21:18:39.373Z,99450.00
2023-07-24T21:21:08.342Z,99442.38
2023-07-24T21:23:35.353Z,99447.91
2023-07-24T21:26:02.140Z,99451.22
2023-07-24T21:28:28.901Z,99444.09
2023-07-24T21:30:55.898Z,99444.25
2023-07-24T21:33:22.749Z,99454.09
2023-07-24T21:36:02.750Z,99446.88
2023-07-24T21:38:29.954Z,99443.38
2023-07-24T21:40:56.815Z,99448.13
2023-07-24T21:43:24.002Z,99442.59
2023-07-24T21:45:53.076Z,99443.72
2023-07-24T21:48:19.981Z,99434.72
2023-07-24T21:50:54.220Z,99440.91
2023-07-24T21:53:23.639Z,99427.94
2023-07-24T21:55:50.573Z,99427.31
2023-07-24T21:58:17.337Z,99415.72
2023-07-24T22:00:44.148Z,99427.28
2023-07-24T22:03:11.211Z,99414.16
2023-07-24T22:05:38.455Z,99415.19
2023-07-24T22:08:05.636Z,99416.44
2023-07-24T22:10:32.365Z,99425.41
2023-07-24T22:12:59.267Z,99418.94
2023-07-24T22:15:26.006Z,99418.56
2023-07-24T22:17:52.791Z,99418.28
2023-07-24T22:22:53.613Z,99429.84
2023-07-24T22:25:20.509Z,99419.00
2023-07-24T22:27:47.505Z,99415.41
2023-07-24T22:30:14.271Z,99426.47
2023-07-24T22:32:41.201Z,99424.50
2023-07-24T22:35:08.491Z,99384.22
2023-07-24T22:37:35.298Z,99414.88
2023-07-24T22:40:02.041Z,99408.03
2023-07-24T22:42:28.765Z,99395.16
2023-07-24T22:44:55.690Z,99408.50
2023-07-24T22:47:22.566Z,99400.81
2023-07-24T22:49:49.439Z,99406.84
2023-07-24T22:52:16.166Z,99394.34
2023-07-24T22:54:43.140Z,99407.13
2023-07-24T22:57:09.811Z,99405.72
2023-07-24T22:59:36.695Z,99402.19
2023-07-24T23:02:03.593Z,99386.44
2023-07-24T23:04:30.283Z,99383.72
2023-07-24T23:06:57.169Z,99373.16
2023-07-24T23:09:24.379Z,99377.13
2023-07-24T23:11:51.168Z,99379.53
2023-07-24T23:14:17.896Z,99380.94
2023-07-24T23:16:44.686Z,99386.94
2023-07-24T23:19:11.586Z,99370.78
2023-07-24T23:21:38.581Z,99368.47
2023-07-24T23:24:05.746Z,99358.25
2023-07-24T23:26:32.539Z,99342.59
2023-07-24T23:28:59.683Z,99349.56
2023-07-24T23:31:26.503Z,99335.50
2023-07-24T23:33:53.292Z,99344.94
2023-07-24T23:36:20.021Z,99345.81
2023-07-24T23:38:46.826Z,99338.50
2023-07-24T23:41:13.636Z,99327.56
2023-07-24T23:43:40.366Z,99323.38
2023-07-24T23:46:14.969Z,99312.84
2023-07-24T23:48:42.586Z,99310.06
2023-07-24T23:51:20.301Z,99304.81
2023-07-24T23:53:48.106Z,99318.19
2023-07-24T23:56:15.237Z,99339.50
2023-07-24T23:58:42.079Z,99340.78
